Time;durP1;ratioP1;P1;durP2;ratioP2;P2;SDS_P1;SDS_P2;PMS_P1;PMS_P2;Temp;Humidity;BMP_temperature;BMP_pressure;BME280_temperature;BME280_humidity;BME280_pressure;Samples;Min_cycle;Max_cycle;Signal;HPM_P1;HPM_P2
2021/11/22 00:00:14;;;;;;;8.68;3.30;;;3.70;99.90;;;;;;5033335;28;20132;-59
2021/11/22 00:02:40;;;;;;;12.40;3.85;;;3.70;99.90;;;;;;5031044;28;20030;-59
2021/11/22 00:05:07;;;;;;;9.55;3.75;;;3.70;99.90;;;;;;5031932;28;20479;-62
2021/11/22 00:07:33;;;;;;;14.07;3.60;;;3.70;99.90;;;;;;5028767;28;20044;-60
2021/11/22 00:09:59;;;;;;;10.98;3.50;;;3.70;99.90;;;;;;5021750;28;20033;-59
2021/11/22 00:12:26;;;;;;;14.45;3.95;;;3.70;99.90;;;;;;5012866;28;20053;-60
2021/11/22 00:14:52;;;;;;;12.20;3.15;;;3.60;99.90;;;;;;5013084;28;20506;-61
2021/11/22 00:17:17;;;;;;;6.88;3.15;;;3.60;99.90;;;;;;5020397;28;20049;-62
2021/11/22 00:19:43;;;;;;;7.90;3.15;;;3.70;99.90;;;;;;5032743;28;20392;-59
2021/11/22 00:22:09;;;;;;;12.68;3.22;;;3.60;99.90;;;;;;5025901;28;20434;-59
2021/11/22 00:24:35;;;;;;;10.73;3.38;;;3.60;99.90;;;;;;5012588;28;20026;-58
2021/11/22 00:27:01;;;;;;;8.32;3.13;;;3.70;99.90;;;;;;5017171;28;20044;-60
2021/11/22 00:29:26;;;;;;;7.45;3.30;;;3.70;99.90;;;;;;5032205;28;20460;-59
2021/11/22 00:31:53;;;;;;;9.45;3.30;;;3.70;99.90;;;;;;5030655;28;20523;-58
2021/11/22 00:34:19;;;;;;;10.07;3.28;;;3.70;99.90;;;;;;5013263;28;20598;-56
2021/11/22 00:36:45;;;;;;;10.60;3.33;;;3.70;99.90;;;;;;5029769;28;20029;-59
2021/11/22 00:39:11;;;;;;;11.02;3.38;;;3.70;99.90;;;;;;5032244;28;20048;-59
2021/11/22 00:41:37;;;;;;;10.35;3.45;;;3.80;99.90;;;;;;5031032;28;20037;-60
2021/11/22 00:44:03;;;;;;;12.45;3.25;;;3.70;99.90;;;;;;5008358;28;20036;-59
2021/11/22 00:46:29;;;;;;;12.20;4.03;;;3.70;99.90;;;;;;5030816;28;20041;-62
2021/11/22 00:48:54;;;;;;;9.02;3.15;;;3.60;99.90;;;;;;5012553;28;20030;-60
2021/11/22 00:51:20;;;;;;;10.82;2.95;;;3.60;99.90;;;;;;5012896;28;20503;-59
2021/11/22 00:53:47;;;;;;;12.55;3.70;;;3.60;99.90;;;;;;5015457;28;20080;-59
2021/11/22 00:56:16;;;;;;;14.32;4.57;;;3.60;99.90;;;;;;5012936;28;20053;-60
2021/11/22 00:58:43;;;;;;;19.17;4.13;;;3.70;99.90;;;;;;5020362;28;20053;-58
2021/11/22 01:01:09;;;;;;;13.27;3.88;;;3.60;99.90;;;;;;5032449;28;20021;-56
2021/11/22 01:03:34;;;;;;;16.50;4.25;;;3.70;99.90;;;;;;5015345;28;20536;-58
2021/11/22 01:06:00;;;;;;;11.40;3.63;;;3.60;99.90;;;;;;5012482;28;20385;-56
2021/11/22 01:08:26;;;;;;;12.15;3.83;;;3.60;99.90;;;;;;5019252;28;20049;-61
2021/11/22 01:10:52;;;;;;;11.93;3.70;;;3.50;99.90;;;;;;5032389;28;20044;-59
2021/11/22 01:13:18;;;;;;;15.95;4.22;;;3.50;99.90;;;;;;5017721;28;20030;-59
2021/11/22 01:15:44;;;;;;;10.52;4.07;;;3.50;99.90;;;;;;5012286;28;20040;-59
2021/11/22 01:18:10;;;;;;;12.77;4.18;;;3.50;99.90;;;;;;5011873;28;20026;-61
2021/11/22 01:20:37;;;;;;;14.20;4.00;;;3.50;99.90;;;;;;5014529;28;20049;-56
2021/11/22 01:23:06;;;;;;;14.10;3.90;;;3.50;99.90;;;;;;5011351;28;20774;-60
2021/11/22 01:25:32;;;;;;;17.20;4.00;;;3.40;99.90;;;;;;5011655;28;20061;-58
2021/11/22 01:27:58;;;;;;;7.30;3.70;;;3.50;99.90;;;;;;5011770;28;20037;-60
2021/11/22 01:30:24;;;;;;;12.32;4.13;;;3.50;99.90;;;;;;5011792;28;20033;-58
2021/11/22 01:32:51;;;;;;;12.13;4.22;;;3.50;99.90;;;;;;5010716;28;20038;-58
2021/11/22 01:35:17;;;;;;;13.10;4.15;;;3.50;99.90;;;;;;5022041;28;20049;-61
2021/11/22 01:37:44;;;;;;;16.83;4.55;;;3.50;99.90;;;;;;5016698;28;20073;-59
2021/11/22 01:40:12;;;;;;;13.48;4.50;;;3.40;99.90;;;;;;5010081;28;20034;-59
2021/11/22 01:42:40;;;;;;;17.45;4.30;;;3.40;99.90;;;;;;5011817;28;20045;-59
2021/11/22 01:45:09;;;;;;;17.65;4.60;;;3.40;99.90;;;;;;5011758;28;20022;-59
2021/11/22 01:47:35;;;;;;;16.38;4.60;;;3.40;99.90;;;;;;5014461;28;20084;-61
2021/11/22 01:50:02;;;;;;;12.35;4.60;;;3.40;99.90;;;;;;5011000;28;20041;-58
2021/11/22 01:52:27;;;;;;;14.77;4.65;;;3.40;99.90;;;;;;5025886;28;20399;-56
2021/11/22 01:54:53;;;;;;;17.23;4.95;;;3.40;99.90;;;;;;5027637;28;20030;-61
2021/11/22 01:57:19;;;;;;;10.20;4.20;;;3.40;99.90;;;;;;5011764;28;20475;-58
2021/11/22 01:59:45;;;;;;;15.65;4.28;;;3.30;99.90;;;;;;5010868;28;20527;-61
2021/11/22 02:02:13;;;;;;;14.65;4.20;;;3.40;99.90;;;;;;5011329;28;20036;-58
2021/11/22 02:04:41;;;;;;;13.88;4.65;;;3.30;99.90;;;;;;5014069;28;20494;-60
2021/11/22 02:07:07;;;;;;;12.82;4.28;;;3.30;99.90;;;;;;5031415;28;20411;-58
2021/11/22 02:09:33;;;;;;;14.27;4.40;;;3.30;99.90;;;;;;5011230;28;20040;-60
2021/11/22 02:11:59;;;;;;;11.38;3.80;;;3.30;99.90;;;;;;5011447;28;20033;-61
2021/11/22 02:14:25;;;;;;;12.35;4.35;;;3.30;99.90;;;;;;5011545;28;20026;-61
2021/11/22 02:16:51;;;;;;;21.42;4.20;;;3.30;99.90;;;;;;5031151;28;20029;-58
2021/11/22 02:19:17;;;;;;;13.13;4.50;;;3.30;99.90;;;;;;5013902;28;20037;-60
2021/11/22 02:21:43;;;;;;;14.77;4.10;;;3.30;99.90;;;;;;5031169;28;20041;-60
2021/11/22 02:24:10;;;;;;;16.27;4.38;;;3.30;99.90;;;;;;5030378;28;20538;-59
2021/11/22 02:26:36;;;;;;;13.10;4.00;;;3.30;99.90;;;;;;5012371;28;20026;-58
2021/11/22 02:29:04;;;;;;;13.38;3.97;;;3.30;99.90;;;;;;5011631;28;20049;-60
2021/11/22 02:31:29;;;;;;;13.80;3.78;;;3.30;99.90;;;;;;5024356;28;20073;-61
2021/11/22 02:33:56;;;;;;;13.05;3.60;;;3.30;99.90;;;;;;5015499;28;20511;-58
2021/11/22 02:36:22;;;;;;;15.70;4.20;;;3.30;99.90;;;;;;5010762;28;20026;-60
2021/11/22 02:38:49;;;;;;;10.32;3.80;;;3.30;99.90;;;;;;5008454;28;20580;-59
2021/11/22 02:41:16;;;;;;;14.25;3.70;;;3.30;99.90;;;;;;4992873;28;20106;-57
2021/11/22 02:43:45;;;;;;;12.70;4.00;;;3.30;99.90;;;;;;5005176;28;20030;-57
2021/11/22 02:46:12;;;;;;;12.80;4.13;;;3.30;99.90;;;;;;5012634;28;20038;-58
2021/11/22 02:48:38;;;;;;;14.68;3.85;;;3.30;99.90;;;;;;5013887;28;20021;-59
2021/11/22 02:51:05;;;;;;;18.50;3.50;;;3.30;99.90;;;;;;5014750;28;20034;-58
2021/11/22 02:53:32;;;;;;;12.32;3.22;;;3.40;99.90;;;;;;5013673;28;20030;-58
2021/11/22 02:56:00;;;;;;;12.30;3.33;;;3.40;99.90;;;;;;5014328;28;20038;-59
2021/11/22 02:58:26;;;;;;;16.17;3.58;;;3.40;99.90;;;;;;5014176;28;20018;-60
2021/11/22 03:00:52;;;;;;;15.43;3.50;;;3.40;99.90;;;;;;5014395;28;20034;-59
2021/11/22 03:03:18;;;;;;;9.95;3.28;;;3.40;99.90;;;;;;5014362;28;20462;-60
2021/11/22 03:05:44;;;;;;;9.77;2.83;;;3.50;99.90;;;;;;5013890;28;20160;-60
2021/11/22 03:08:09;;;;;;;14.45;3.63;;;3.50;99.90;;;;;;5013918;28;20144;-57
2021/11/22 03:10:35;;;;;;;14.05;3.10;;;3.50;99.90;;;;;;5013777;28;20108;-55
2021/11/22 03:13:01;;;;;;;11.20;3.30;;;3.60;99.90;;;;;;5013700;28;20051;-59
2021/11/22 03:15:28;;;;;;;17.20;4.30;;;3.60;99.90;;;;;;5013523;28;20034;-60
2021/11/22 03:17:54;;;;;;;11.02;3.65;;;3.60;99.90;;;;;;5012925;28;20499;-58
2021/11/22 03:20:21;;;;;;;18.52;4.20;;;3.50;99.90;;;;;;5013350;28;20060;-59
2021/11/22 03:22:49;;;;;;;15.85;3.35;;;3.50;99.90;;;;;;5013585;28;20109;-58
2021/11/22 03:25:16;;;;;;;12.50;3.40;;;3.50;99.90;;;;;;5013306;28;20026;-58
2021/11/22 03:27:44;;;;;;;13.07;4.22;;;3.40;99.90;;;;;;5013964;28;20041;-58
2021/11/22 03:30:12;;;;;;;14.98;3.90;;;3.40;99.90;;;;;;5013041;28;20480;-61
2021/11/22 03:32:38;;;;;;;14.32;3.35;;;3.40;99.90;;;;;;5013528;28;20030;-59
2021/11/22 03:35:05;;;;;;;18.10;3.75;;;3.30;99.90;;;;;;5013157;28;20083;-55
2021/11/22 03:37:31;;;;;;;19.77;3.72;;;3.30;99.90;;;;;;5013337;28;20026;-59
2021/11/22 03:39:57;;;;;;;14.10;3.63;;;3.30;99.90;;;;;;5013189;28;20038;-58
2021/11/22 03:42:24;;;;;;;14.57;3.38;;;3.30;99.90;;;;;;5013735;28;20458;-60
2021/11/22 03:44:50;;;;;;;16.58;3.65;;;3.20;99.90;;;;;;5013011;28;20420;-60
2021/11/22 03:47:16;;;;;;;15.75;3.40;;;3.20;99.90;;;;;;5013513;28;20033;-58
2021/11/22 03:49:42;;;;;;;16.17;3.20;;;3.20;99.90;;;;;;5012497;28;20034;-58
2021/11/22 03:52:09;;;;;;;11.23;3.30;;;3.30;99.90;;;;;;5013783;28;20034;-59
2021/11/22 03:54:36;;;;;;;10.73;3.17;;;3.30;99.90;;;;;;5012868;28;20022;-60
2021/11/22 03:57:03;;;;;;;19.23;3.67;;;3.30;99.90;;;;;;5013633;28;20036;-59
2021/11/22 03:59:29;;;;;;;12.60;3.28;;;3.20;99.90;;;;;;5012444;28;20119;-62
2021/11/22 04:01:54;;;;;;;10.68;3.20;;;3.20;99.90;;;;;;5013311;28;20464;-59
2021/11/22 04:04:20;;;;;;;15.27;3.58;;;3.20;99.90;;;;;;5012635;28;20041;-57
2021/11/22 04:06:46;;;;;;;15.80;3.25;;;3.20;99.90;;;;;;5013362;28;20088;-56
2021/11/22 04:09:11;;;;;;;14.77;3.75;;;3.30;99.90;;;;;;5012722;28;20053;-58
2021/11/22 04:11:37;;;;;;;14.65;3.05;;;3.30;99.90;;;;;;5012542;28;20033;-59
2021/11/22 04:14:05;;;;;;;16.05;3.40;;;3.20;99.90;;;;;;5012295;28;20030;-61
2021/11/22 04:16:31;;;;;;;12.35;3.40;;;3.20;99.90;;;;;;5012892;28;20037;-60
2021/11/22 04:18:57;;;;;;;12.68;3.10;;;3.20;99.90;;;;;;5012884;28;20041;-60
2021/11/22 04:21:25;;;;;;;13.77;3.08;;;3.20;99.90;;;;;;5012703;28;20041;-57
2021/11/22 04:23:52;;;;;;;17.05;3.35;;;3.20;99.90;;;;;;5012377;28;20480;-58
2021/11/22 04:26:18;;;;;;;14.27;3.42;;;3.20;99.90;;;;;;5011239;28;20038;-57
2021/11/22 04:28:45;;;;;;;13.70;3.08;;;3.10;99.90;;;;;;5012893;28;20034;-58
2021/11/22 04:31:11;;;;;;;14.98;3.30;;;3.10;99.90;;;;;;5007919;28;20021;-58
2021/11/22 04:33:37;;;;;;;11.32;3.20;;;3.10;99.90;;;;;;5012860;28;20518;-61
2021/11/22 04:36:04;;;;;;;16.20;3.28;;;3.00;99.90;;;;;;5011520;28;20044;-60
2021/11/22 04:38:30;;;;;;;13.77;3.28;;;2.90;99.90;;;;;;5012848;28;20018;-59
2021/11/22 04:40:56;;;;;;;15.77;2.63;;;2.90;99.90;;;;;;5011751;28;20033;-59
2021/11/22 04:43:21;;;;;;;15.82;3.03;;;3.00;99.90;;;;;;5012523;28;20037;-59
2021/11/22 04:45:47;;;;;;;11.27;2.88;;;3.00;99.90;;;;;;5011573;28;20026;-60
2021/11/22 04:48:13;;;;;;;11.50;3.22;;;2.90;99.90;;;;;;5012913;28;20037;-59
2021/11/22 04:50:39;;;;;;;12.18;3.13;;;3.00;99.90;;;;;;5011169;28;20030;-61
2021/11/22 04:53:05;;;;;;;13.70;2.92;;;3.00;99.90;;;;;;5012138;28;20040;-62
2021/11/22 04:55:31;;;;;;;16.65;3.72;;;3.00;99.90;;;;;;5011591;28;20037;-59
2021/11/22 04:57:57;;;;;;;11.70;3.05;;;3.10;99.90;;;;;;4995480;28;20038;-58
2021/11/22 05:00:24;;;;;;;19.00;3.13;;;3.10;99.90;;;;;;5000893;28;20411;-59
2021/11/22 05:02:51;;;;;;;15.88;3.80;;;3.00;99.90;;;;;;5011912;28;20057;-58
2021/11/22 05:05:18;;;;;;;11.00;2.90;;;3.00;99.90;;;;;;5011134;28;20030;-61
2021/11/22 05:07:45;;;;;;;14.18;3.10;;;2.90;99.90;;;;;;5011657;28;20037;-59
2021/11/22 05:10:12;;;;;;;17.05;3.50;;;2.90;99.90;;;;;;5010292;28;20026;-60
2021/11/22 05:12:38;;;;;;;13.60;2.67;;;3.00;99.90;;;;;;5011907;28;20101;-58
2021/11/22 05:15:05;;;;;;;10.25;3.28;;;2.90;99.90;;;;;;5010296;28;20026;-54
2021/11/22 05:17:32;;;;;;;12.73;3.33;;;2.90;99.90;;;;;;5011491;28;20103;-57
2021/11/22 05:19:58;;;;;;;15.50;3.67;;;2.80;99.90;;;;;;5010097;28;20040;-60
2021/11/22 05:22:24;;;;;;;13.75;3.33;;;2.80;99.90;;;;;;5011670;28;20022;-60
2021/11/22 05:24:51;;;;;;;13.65;3.42;;;2.80;99.90;;;;;;5010405;28;20017;-58
2021/11/22 05:27:22;;;;;;;14.95;3.47;;;2.70;99.90;;;;;;5010588;28;20456;-56
2021/11/22 05:29:49;;;;;;;12.13;3.10;;;2.80;99.90;;;;;;5010194;28;20045;-58
2021/11/22 05:32:17;;;;;;;15.88;3.13;;;2.80;99.90;;;;;;5010296;28;20029;-58
2021/11/22 05:34:48;;;;;;;14.75;3.08;;;2.80;99.90;;;;;;5010782;28;20249;-58
2021/11/22 05:37:15;;;;;;;15.60;3.17;;;2.80;99.90;;;;;;5011837;28;20068;-59
2021/11/22 05:39:41;;;;;;;18.83;3.38;;;2.80;99.90;;;;;;5010758;28;20420;-54
2021/11/22 05:42:07;;;;;;;15.32;3.03;;;2.80;99.90;;;;;;5010132;28;20117;-58
2021/11/22 05:44:34;;;;;;;19.65;3.50;;;2.80;99.90;;;;;;5011220;28;20523;-59
2021/11/22 05:47:04;;;;;;;12.27;3.13;;;2.70;99.90;;;;;;5011285;28;20030;-59
2021/11/22 05:49:32;;;;;;;13.07;3.20;;;2.70;99.90;;;;;;5012236;28;20125;-62
2021/11/22 05:51:58;;;;;;;10.02;3.17;;;2.80;99.90;;;;;;5010720;28;20026;-59
2021/11/22 05:54:25;;;;;;;11.32;3.08;;;2.80;99.90;;;;;;5009333;28;20041;-57
2021/11/22 05:56:51;;;;;;;10.40;2.60;;;2.80;99.90;;;;;;5010726;28;20026;-59
2021/11/22 05:59:18;;;;;;;14.40;3.42;;;2.70;99.90;;;;;;5010989;28;20096;-60
2021/11/22 06:01:44;;;;;;;12.05;2.95;;;2.60;99.90;;;;;;5009866;28;20037;-58
2021/11/22 06:04:09;;;;;;;11.30;3.13;;;2.60;99.90;;;;;;5009663;28;20026;-60
2021/11/22 06:06:35;;;;;;;14.90;2.88;;;2.60;99.90;;;;;;5010301;28;20033;-60
2021/11/22 06:09:01;;;;;;;15.68;3.38;;;2.70;99.90;;;;;;5010417;28;20164;-58
2021/11/22 06:11:27;;;;;;;13.65;3.30;;;2.70;99.90;;;;;;5009951;28;20097;-58
2021/11/22 06:13:52;;;;;;;23.80;5.57;;;2.70;99.90;;;;;;5010944;28;20034;-59
2021/11/22 06:16:18;;;;;;;24.02;3.40;;;2.80;99.90;;;;;;5009722;28;20045;-58
2021/11/22 06:18:44;;;;;;;15.18;3.10;;;2.80;99.90;;;;;;5011197;28;20022;-61
2021/11/22 06:21:10;;;;;;;16.00;3.05;;;2.70;99.90;;;;;;5011337;28;20049;-57
2021/11/22 06:23:36;;;;;;;21.42;4.07;;;2.70;99.90;;;;;;5014649;28;20030;-59
2021/11/22 06:26:02;;;;;;;13.80;2.97;;;2.70;99.90;;;;;;5013898;28;20113;-59
2021/11/22 06:28:27;;;;;;;11.98;2.80;;;2.70;99.90;;;;;;5014374;28;20026;-56
2021/11/22 06:30:53;;;;;;;11.82;2.92;;;2.70;99.90;;;;;;5013479;28;20029;-58
2021/11/22 06:33:19;;;;;;;13.98;3.60;;;2.70;99.90;;;;;;5011081;28;20112;-57
2021/11/22 06:35:45;;;;;;;27.83;8.98;;;2.70;99.90;;;;;;5013537;28;20472;-59
2021/11/22 06:38:12;;;;;;;14.70;3.35;;;2.80;99.90;;;;;;5014478;28;20113;-60
2021/11/22 06:40:38;;;;;;;16.58;3.72;;;2.90;99.90;;;;;;5013710;28;20072;-59
2021/11/22 06:43:04;;;;;;;15.50;3.25;;;2.90;99.90;;;;;;5014658;28;20492;-58
2021/11/22 06:45:30;;;;;;;16.60;3.95;;;2.90;99.90;;;;;;5013481;28;20053;-62
2021/11/22 06:47:56;;;;;;;11.00;2.65;;;2.90;99.90;;;;;;5014406;28;20034;-60
2021/11/22 06:50:23;;;;;;;16.83;4.10;;;2.90;99.90;;;;;;5012334;28;20026;-57
2021/11/22 06:52:50;;;;;;;16.75;2.80;;;2.80;99.90;;;;;;5014471;28;20503;-59
2021/11/22 06:55:16;;;;;;;19.35;3.10;;;2.80;99.90;;;;;;5013140;28;20030;-57
2021/11/22 06:57:42;;;;;;;11.93;2.65;;;2.80;99.90;;;;;;5013592;28;20055;-55
2021/11/22 07:00:11;;;;;;;10.68;3.00;;;2.80;99.90;;;;;;5011938;28;20060;-57
2021/11/22 07:02:38;;;;;;;13.93;2.92;;;2.90;99.90;;;;;;5013645;28;20021;-60
2021/11/22 07:05:04;;;;;;;11.68;3.25;;;3.00;99.90;;;;;;5013593;28;20068;-58
2021/11/22 07:07:30;;;;;;;15.95;2.95;;;3.00;99.90;;;;;;5010549;28;20037;-60
2021/11/22 07:09:56;;;;;;;12.25;3.38;;;2.90;99.90;;;;;;5013964;28;20068;-60
2021/11/22 07:12:22;;;;;;;13.65;2.80;;;2.90;99.90;;;;;;5012019;28;20140;-58
2021/11/22 07:14:48;;;;;;;15.35;2.90;;;3.00;99.90;;;;;;5014201;28;20088;-60
2021/11/22 07:17:14;;;;;;;15.75;3.95;;;3.00;99.90;;;;;;5012499;28;20026;-59
2021/11/22 07:19:41;;;;;;;17.58;3.33;;;3.00;99.90;;;;;;5013580;28;20044;-59
2021/11/22 07:22:09;;;;;;;19.95;4.20;;;3.00;99.90;;;;;;5013047;28;20536;-59
2021/11/22 07:24:38;;;;;;;13.10;2.83;;;2.90;99.90;;;;;;5013500;28;20033;-60
2021/11/22 07:27:05;;;;;;;15.77;3.17;;;2.90;99.90;;;;;;5012270;28;20030;-59
2021/11/22 07:29:30;;;;;;;12.95;2.85;;;2.90;99.90;;;;;;5012716;28;20026;-56
2021/11/22 07:31:56;;;;;;;18.98;3.33;;;2.80;99.90;;;;;;5011946;28;20464;-58
2021/11/22 07:34:22;;;;;;;9.68;3.15;;;2.80;99.90;;;;;;5013842;28;20022;-58
2021/11/22 07:36:48;;;;;;;17.08;3.05;;;2.90;99.90;;;;;;5012155;28;20472;-60
2021/11/22 07:39:14;;;;;;;22.55;6.72;;;2.90;99.90;;;;;;5012143;28;20041;-60
2021/11/22 07:41:40;;;;;;;17.80;4.40;;;2.90;99.90;;;;;;5012559;28;20029;-58
2021/11/22 07:44:07;;;;;;;13.30;3.25;;;3.00;99.90;;;;;;5013669;28;20040;-59
2021/11/22 07:46:33;;;;;;;12.60;3.35;;;3.00;99.90;;;;;;5012159;28;20057;-58
2021/11/22 07:48:59;;;;;;;18.27;3.20;;;3.10;99.90;;;;;;5013133;28;20038;-57
2021/11/22 07:51:25;;;;;;;14.73;3.47;;;3.10;99.90;;;;;;5012183;28;20113;-55
2021/11/22 07:53:50;;;;;;;20.58;3.33;;;3.20;99.90;;;;;;5017760;28;20034;-57
2021/11/22 07:56:16;;;;;;;16.55;3.45;;;3.20;99.90;;;;;;5012410;28;20033;-58
2021/11/22 07:58:43;;;;;;;16.67;3.60;;;3.20;99.90;;;;;;5012327;28;20054;-58
2021/11/22 08:01:09;;;;;;;15.57;3.78;;;3.20;99.90;;;;;;5011756;28;20037;-61
2021/11/22 08:03:34;;;;;;;18.17;3.63;;;3.20;99.90;;;;;;5012242;28;20600;-57
2021/11/22 08:06:02;;;;;;;23.27;3.75;;;3.20;99.90;;;;;;5011870;28;20034;-59
2021/11/22 08:08:30;;;;;;;15.15;3.53;;;3.20;99.90;;;;;;5013015;28;20028;-56
2021/11/22 08:13:38;;;;;;;19.27;3.78;;;3.20;99.90;;;;;;5006287;28;20034;-62
2021/11/22 08:16:05;;;;;;;15.90;3.67;;;3.20;99.90;;;;;;5011312;28;20029;-57
2021/11/22 08:18:32;;;;;;;15.95;3.97;;;3.20;99.90;;;;;;5012349;28;20041;-56
2021/11/22 08:20:58;;;;;;;20.90;3.95;;;3.30;99.90;;;;;;5010858;28;20512;-57
2021/11/22 08:23:24;;;;;;;22.58;5.10;;;3.30;99.90;;;;;;5011849;28;20026;-59
2021/11/22 08:25:50;;;;;;;22.80;6.50;;;3.40;99.90;;;;;;5012100;28;20046;-59
2021/11/22 08:28:17;;;;;;;18.70;4.55;;;3.50;99.90;;;;;;5011435;28;20416;-59
2021/11/22 08:30:43;;;;;;;13.98;3.67;;;3.60;99.90;;;;;;5011215;28;20124;-60
2021/11/22 08:33:13;;;;;;;11.98;3.60;;;3.70;99.90;;;;;;5009283;28;20180;-56
2021/11/22 08:35:39;;;;;;;19.38;4.55;;;3.70;99.90;;;;;;5012133;28;20029;-60
2021/11/22 08:38:05;;;;;;;16.77;3.33;;;3.90;99.90;;;;;;5011816;28;20392;-59
2021/11/22 08:40:32;;;;;;;17.98;3.95;;;4.00;99.90;;;;;;5011878;28;20041;-60
2021/11/22 08:42:58;;;;;;;12.07;3.28;;;4.20;99.90;;;;;;5010681;28;20036;-60
2021/11/22 08:45:24;;;;;;;17.15;3.80;;;4.40;99.90;;;;;;5011052;28;20053;-56
2021/11/22 08:47:50;;;;;;;14.20;3.58;;;4.40;99.90;;;;;;5011181;28;20365;-59
2021/11/22 08:50:18;;;;;;;21.92;4.00;;;4.50;99.90;;;;;;5012001;28;20123;-59
2021/11/22 08:52:44;;;;;;;20.50;4.57;;;4.50;99.90;;;;;;5011215;28;20040;-58
2021/11/22 08:55:12;;;;;;;23.75;4.25;;;4.50;99.90;;;;;;5011684;28;20499;-57
2021/11/22 08:57:38;;;;;;;17.33;4.18;;;4.50;99.90;;;;;;4999743;28;20030;-57
2021/11/22 09:00:21;;;;;;;18.15;4.28;;;4.50;99.90;;;;;;5011178;28;20042;-56
2021/11/22 09:02:47;;;;;;;21.92;4.88;;;4.40;99.90;;;;;;5009271;28;20042;-58
2021/11/22 09:05:12;;;;;;;17.17;4.07;;;4.30;99.90;;;;;;5011084;28;20036;-56
2021/11/22 09:07:38;;;;;;;11.32;3.63;;;4.40;99.90;;;;;;5013994;28;20044;-57
2021/11/22 09:10:04;;;;;;;18.55;4.50;;;4.30;99.90;;;;;;5011602;28;20083;-59
2021/11/22 09:12:31;;;;;;;18.42;4.25;;;4.20;99.90;;;;;;5011133;28;20084;-59
2021/11/22 09:14:56;;;;;;;17.35;3.95;;;4.20;99.90;;;;;;5010837;28;20061;-57
2021/11/22 09:17:22;;;;;;;18.52;6.00;;;4.10;99.90;;;;;;5008891;28;20396;-57
2021/11/22 09:19:48;;;;;;;18.45;5.28;;;4.20;99.90;;;;;;5010866;28;20061;-56
2021/11/22 09:22:14;;;;;;;16.45;4.40;;;4.30;99.90;;;;;;5010809;28;20030;-60
2021/11/22 09:24:41;;;;;;;14.88;4.97;;;4.30;99.90;;;;;;5011056;28;20115;-59
2021/11/22 09:27:07;;;;;;;15.43;5.00;;;4.20;99.90;;;;;;5008984;28;20526;-58
2021/11/22 09:29:34;;;;;;;23.98;6.13;;;4.20;99.90;;;;;;5011250;28;20049;-58
2021/11/22 09:31:59;;;;;;;19.38;6.50;;;4.20;99.90;;;;;;5009261;28;20395;-57
2021/11/22 09:34:25;;;;;;;24.88;7.20;;;4.20;99.90;;;;;;5011118;28;20443;-54
2021/11/22 09:36:51;;;;;;;17.48;6.35;;;4.30;99.90;;;;;;5010117;28;20041;-59
2021/11/22 09:39:18;;;;;;;24.95;6.35;;;4.40;99.90;;;;;;5008364;28;20542;-57
2021/11/22 09:41:48;;;;;;;20.70;5.25;;;4.50;99.90;;;;;;5005928;28;20142;-62
2021/11/22 09:44:16;;;;;;;20.20;5.55;;;4.50;99.90;;;;;;5010470;28;20061;-59
2021/11/22 09:46:42;;;;;;;19.00;5.65;;;4.50;99.90;;;;;;4995879;28;20086;-58
2021/11/22 09:49:08;;;;;;;19.65;5.38;;;4.60;99.90;;;;;;5004972;28;20029;-61
2021/11/22 09:51:34;;;;;;;20.42;6.88;;;4.60;99.90;;;;;;5012758;28;20041;-60
2021/11/22 09:54:01;;;;;;;20.17;6.35;;;4.60;99.90;;;;;;5013937;28;20373;-60
2021/11/22 09:56:27;;;;;;;29.08;8.40;;;4.70;99.90;;;;;;5010742;28;20029;-59
2021/11/22 09:58:53;;;;;;;41.17;16.67;;;4.80;99.90;;;;;;5000001;28;20061;-59
2021/11/22 10:01:22;;;;;;;31.02;11.93;;;4.80;99.90;;;;;;5011459;28;20049;-59
2021/11/22 10:04:04;;;;;;;27.23;11.40;;;4.90;99.90;;;;;;5010730;28;20422;-59
2021/11/22 10:06:57;;;;;;;34.63;13.00;;;4.90;99.90;;;;;;5006747;28;20041;-61
2021/11/22 10:09:32;;;;;;;21.80;6.22;;;5.10;99.90;;;;;;4996286;28;20045;-60
2021/11/22 10:11:59;;;;;;;;;;;5.10;99.90;;;;;;5007183;28;20031;-63
2021/11/22 10:14:34;;;;;;;15.45;5.20;;;5.10;99.90;;;;;;5004009;28;19932;-62
2021/11/22 10:16:59;;;;;;;14.10;4.10;;;5.20;99.90;;;;;;5004463;28;20030;-58
2021/11/22 10:19:25;;;;;;;20.98;5.78;;;5.30;99.90;;;;;;5016123;28;20438;-61
2021/11/22 10:21:51;;;;;;;25.17;6.90;;;5.30;99.90;;;;;;5009718;28;20477;-61
2021/11/22 10:24:17;;;;;;;23.00;5.60;;;5.40;99.90;;;;;;4998137;28;20061;-60
2021/11/22 10:26:51;;;;;;;19.85;5.50;;;5.40;99.90;;;;;;5001226;28;20565;-60
2021/11/22 10:29:24;;;;;;;17.45;5.03;;;5.50;99.90;;;;;;5013994;28;20080;-59
2021/11/22 10:31:57;;;;;;;22.05;4.70;;;5.60;99.90;;;;;;5012066;28;20042;-60
2021/11/22 10:34:23;;;;;;;23.70;5.28;;;5.70;99.90;;;;;;5015869;28;20034;-60
2021/11/22 10:36:57;;;;;;;16.77;4.45;;;5.80;99.90;;;;;;5022765;28;20096;-61
2021/11/22 10:39:26;;;;;;;24.52;6.40;;;5.80;99.90;;;;;;5020782;28;20033;-59
2021/11/22 10:41:52;;;;;;;17.17;4.90;;;5.90;99.90;;;;;;5008970;28;20042;-58
2021/11/22 10:44:17;;;;;;;19.98;5.57;;;6.00;99.90;;;;;;5010923;28;20049;-60
2021/11/22 10:46:48;;;;;;;18.85;5.03;;;6.10;99.90;;;;;;5009091;28;20040;-58
2021/11/22 10:49:16;;;;;;;18.90;4.93;;;6.20;99.90;;;;;;5010549;28;20080;-57
2021/11/22 10:51:49;;;;;;;24.83;5.10;;;6.30;99.90;;;;;;5016706;28;20098;-58
2021/11/22 10:54:17;;;;;;;22.00;4.78;;;6.30;99.90;;;;;;5012363;28;20026;-60
2021/11/22 10:56:46;;;;;;;15.02;3.90;;;6.30;99.90;;;;;;5005677;28;20025;-61
2021/11/22 10:59:16;;;;;;;23.30;4.28;;;6.40;99.90;;;;;;5005598;28;20125;-60
2021/11/22 11:01:53;;;;;;;18.35;5.00;;;6.40;99.90;;;;;;5010818;28;20480;-61
2021/11/22 11:04:25;;;;;;;19.63;4.97;;;6.60;99.90;;;;;;5015966;28;20084;-62
2021/11/22 11:06:56;;;;;;;16.55;4.03;;;6.60;99.90;;;;;;5013329;28;20038;-62
2021/11/22 11:09:50;;;;;;;24.27;3.83;;;6.70;99.90;;;;;;5022571;28;20036;-58
2021/11/22 11:12:23;;;;;;;20.23;4.38;;;6.70;99.90;;;;;;5013963;28;20034;-60
2021/11/22 11:14:52;;;;;;;21.10;4.30;;;6.80;99.90;;;;;;5017656;28;20104;-58
2021/11/22 11:17:23;;;;;;;15.55;3.83;;;6.90;99.90;;;;;;5014350;28;20065;-59
2021/11/22 11:19:53;;;;;;;21.70;4.55;;;7.00;99.90;;;;;;5025586;28;20030;-58
2021/11/22 11:22:20;;;;;;;13.30;3.13;;;7.00;99.90;;;;;;5006501;28;20022;-61
2021/11/22 11:24:46;;;;;;;18.00;4.15;;;7.10;99.90;;;;;;4999881;28;20033;-59
2021/11/22 11:27:13;;;;;;;14.60;3.83;;;7.10;99.90;;;;;;5012997;28;20026;-60
2021/11/22 11:29:38;;;;;;;18.73;4.38;;;7.10;99.90;;;;;;5012417;28;20034;-55
2021/11/22 11:32:05;;;;;;;18.45;4.45;;;7.30;99.90;;;;;;5020997;28;20036;-61
2021/11/22 11:34:33;;;;;;;20.50;3.47;;;7.40;99.90;;;;;;5013159;28;20030;-58
2021/11/22 11:37:18;;;;;;;15.32;3.17;;;7.40;99.90;;;;;;5012892;28;20431;-59
2021/11/22 11:40:05;;;;;;;17.25;3.53;;;7.50;99.90;;;;;;5013436;28;20042;-60
2021/11/22 11:42:54;;;;;;;16.38;3.60;;;7.50;99.90;;;;;;5012765;28;20034;-60
2021/11/22 11:45:37;;;;;;;16.85;4.15;;;7.50;99.90;;;;;;5014493;28;20516;-60
2021/11/22 11:48:05;;;;;;;21.63;3.55;;;7.80;99.90;;;;;;5006851;28;20034;-59
2021/11/22 11:50:35;;;;;;;21.55;4.13;;;7.80;99.90;;;;;;5013300;28;20137;-57
2021/11/22 11:53:07;;;;;;;20.33;3.67;;;7.80;99.90;;;;;;5019233;28;20038;-59
2021/11/22 11:55:33;;;;;;;26.90;3.70;;;7.80;99.90;;;;;;5012863;28;20036;-59
2021/11/22 11:58:20;;;;;;;25.15;4.18;;;7.90;99.90;;;;;;5013272;28;20124;-61
2021/11/22 12:00:58;;;;;;;18.52;3.20;;;7.90;99.90;;;;;;5004394;28;20404;-58
2021/11/22 12:03:26;;;;;;;23.42;3.92;;;7.90;99.90;;;;;;5020138;28;20392;-59
2021/11/22 12:05:54;;;;;;;17.02;3.67;;;7.90;99.90;;;;;;5012391;28;20034;-56
2021/11/22 12:08:33;;;;;;;12.73;3.28;;;8.00;99.90;;;;;;5017040;28;20024;-60
2021/11/22 12:11:03;;;;;;;20.90;3.80;;;8.00;99.90;;;;;;5011132;28;20025;-59
2021/11/22 12:13:48;;;;;;;16.08;3.25;;;8.00;99.90;;;;;;5005339;28;20054;-60
2021/11/22 12:16:49;;;;;;;16.58;3.17;;;8.00;99.90;;;;;;5014633;28;20026;-59
2021/11/22 12:19:40;;;;;;;17.98;3.45;;;8.00;99.90;;;;;;5004599;28;20138;-59
2021/11/22 12:22:07;;;;;;;14.57;4.13;;;8.10;99.90;;;;;;5016422;28;20076;-59
2021/11/22 12:24:41;;;;;;;15.52;2.85;;;8.20;99.90;;;;;;5001851;28;20034;-60
2021/11/22 12:27:29;;;;;;;17.77;3.10;;;8.30;99.90;;;;;;4999777;28;20061;-59
2021/11/22 12:29:59;;;;;;;16.85;3.17;;;8.20;99.90;;;;;;5004920;28;20396;-58
2021/11/22 12:32:34;;;;;;;14.75;3.47;;;8.20;99.90;;;;;;5003050;28;20029;-58
2021/11/22 12:35:06;;;;;;;20.23;3.22;;;8.10;99.90;;;;;;5007357;28;20443;-60
2021/11/22 12:37:34;;;;;;;15.73;2.90;;;8.20;99.90;;;;;;5010497;28;20034;-59
2021/11/22 12:40:16;;;;;;;14.80;3.13;;;8.20;99.90;;;;;;5009026;28;20030;-58
2021/11/22 12:42:52;;;;;;;17.92;3.05;;;8.30;99.90;;;;;;5000220;28;20208;-60
2021/11/22 12:45:18;;;;;;;23.88;3.83;;;8.30;99.90;;;;;;4994534;28;20109;-60
2021/11/22 12:47:46;;;;;;;14.15;3.35;;;8.30;99.90;;;;;;4997715;28;20033;-57
2021/11/22 12:50:18;;;;;;;16.73;3.10;;;8.40;99.90;;;;;;5009716;28;20030;-60
2021/11/22 12:53:14;;;;;;;16.17;3.80;;;8.40;99.90;;;;;;4996296;28;20124;-58